sensor_id;sensor_type;location;lat;lon;timestamp;P1;durP1;ratioP1;P2;durP2;ratioP2
49578;SDS011;35483;50.828;3.228;2023-04-16T00:00:46;8.10;;;5.53;;
49578;SDS011;35483;50.828;3.228;2023-04-16T00:03:13;6.35;;;5.13;;
49578;SDS011;35483;50.828;3.228;2023-04-16T00:05:39;9.35;;;5.63;;
49578;SDS011;35483;50.828;3.228;2023-04-16T00:08:04;10.38;;;5.78;;
49578;SDS011;35483;50.828;3.228;2023-04-16T00:10:30;7.97;;;4.85;;
49578;SDS011;35483;50.828;3.228;2023-04-16T00:12:56;7.43;;;5.65;;
49578;SDS011;35483;50.828;3.228;2023-04-16T00:15:22;8.65;;;5.18;;
49578;SDS011;35483;50.828;3.228;2023-04-16T00:17:48;9.60;;;5.43;;
49578;SDS011;35483;50.828;3.228;2023-04-16T00:20:13;11.80;;;5.53;;
49578;SDS011;35483;50.828;3.228;2023-04-16T00:22:39;7.82;;;5.10;;
49578;SDS011;35483;50.828;3.228;2023-04-16T00:25:05;8.55;;;4.60;;
49578;SDS011;35483;50.828;3.228;2023-04-16T00:27:32;7.50;;;5.55;;
49578;SDS011;35483;50.828;3.228;2023-04-16T00:29:58;7.38;;;5.55;;
49578;SDS011;35483;50.828;3.228;2023-04-16T00:32:24;12.00;;;5.50;;
49578;SDS011;35483;50.828;3.228;2023-04-16T00:34:50;5.78;;;5.13;;
49578;SDS011;35483;50.828;3.228;2023-04-16T00:37:16;6.78;;;4.97;;
49578;SDS011;35483;50.828;3.228;2023-04-16T00:39:42;7.93;;;5.63;;
49578;SDS011;35483;50.828;3.228;2023-04-16T00:42:09;11.15;;;6.30;;
49578;SDS011;35483;50.828;3.228;2023-04-16T00:44:35;11.90;;;6.25;;
49578;SDS011;35483;50.828;3.228;2023-04-16T00:47:01;11.02;;;6.22;;
49578;SDS011;35483;50.828;3.228;2023-04-16T00:49:28;6.55;;;5.05;;
49578;SDS011;35483;50.828;3.228;2023-04-16T00:51:55;5.80;;;5.13;;
49578;SDS011;35483;50.828;3.228;2023-04-16T00:54:21;8.60;;;5.70;;
49578;SDS011;35483;50.828;3.228;2023-04-16T00:56:48;10.10;;;6.03;;
49578;SDS011;35483;50.828;3.228;2023-04-16T00:59:15;9.00;;;4.95;;
49578;SDS011;35483;50.828;3.228;2023-04-16T01:01:41;8.40;;;5.93;;
49578;SDS011;35483;50.828;3.228;2023-04-16T01:04:06;8.40;;;6.00;;
49578;SDS011;35483;50.828;3.228;2023-04-16T01:06:32;7.18;;;6.03;;
49578;SDS011;35483;50.828;3.228;2023-04-16T01:08:58;10.75;;;5.95;;
49578;SDS011;35483;50.828;3.228;2023-04-16T01:11:24;9.80;;;6.45;;
49578;SDS011;35483;50.828;3.228;2023-04-16T01:13:49;7.45;;;6.30;;
49578;SDS011;35483;50.828;3.228;2023-04-16T01:16:15;8.32;;;6.63;;
49578;SDS011;35483;50.828;3.228;2023-04-16T01:18:41;6.40;;;5.63;;
49578;SDS011;35483;50.828;3.228;2023-04-16T01:21:06;9.45;;;7.28;;
49578;SDS011;35483;50.828;3.228;2023-04-16T01:23:32;9.50;;;7.05;;
49578;SDS011;35483;50.828;3.228;2023-04-16T01:25:58;10.85;;;6.97;;
49578;SDS011;35483;50.828;3.228;2023-04-16T01:28:23;10.52;;;7.60;;
49578;SDS011;35483;50.828;3.228;2023-04-16T01:30:51;10.23;;;7.07;;
49578;SDS011;35483;50.828;3.228;2023-04-16T01:33:17;9.80;;;6.68;;
49578;SDS011;35483;50.828;3.228;2023-04-16T01:35:43;11.02;;;7.45;;
49578;SDS011;35483;50.828;3.228;2023-04-16T01:38:09;14.88;;;7.88;;
49578;SDS011;35483;50.828;3.228;2023-04-16T01:40:35;11.20;;;7.82;;
49578;SDS011;35483;50.828;3.228;2023-04-16T01:43:01;9.82;;;6.68;;
49578;SDS011;35483;50.828;3.228;2023-04-16T01:45:28;10.90;;;7.57;;
49578;SDS011;35483;50.828;3.228;2023-04-16T01:47:55;11.35;;;7.40;;
49578;SDS011;35483;50.828;3.228;2023-04-16T01:50:21;10.25;;;8.23;;
49578;SDS011;35483;50.828;3.228;2023-04-16T01:52:47;10.77;;;8.10;;
49578;SDS011;35483;50.828;3.228;2023-04-16T01:55:13;12.45;;;7.30;;
49578;SDS011;35483;50.828;3.228;2023-04-16T01:57:38;11.35;;;7.55;;
49578;SDS011;35483;50.828;3.228;2023-04-16T02:00:04;11.68;;;8.85;;
49578;SDS011;35483;50.828;3.228;2023-04-16T02:02:32;11.50;;;8.02;;
49578;SDS011;35483;50.828;3.228;2023-04-16T02:04:59;11.57;;;8.57;;
49578;SDS011;35483;50.828;3.228;2023-04-16T02:07:25;12.45;;;8.50;;
49578;SDS011;35483;50.828;3.228;2023-04-16T02:09:51;13.85;;;7.82;;
49578;SDS011;35483;50.828;3.228;2023-04-16T02:12:18;12.15;;;8.50;;
49578;SDS011;35483;50.828;3.228;2023-04-16T02:14:43;12.35;;;8.50;;
49578;SDS011;35483;50.828;3.228;2023-04-16T02:17:10;11.27;;;7.97;;
49578;SDS011;35483;50.828;3.228;2023-04-16T02:19:36;12.68;;;8.63;;
49578;SDS011;35483;50.828;3.228;2023-04-16T02:22:01;10.77;;;8.60;;
49578;SDS011;35483;50.828;3.228;2023-04-16T02:24:27;12.13;;;8.43;;
49578;SDS011;35483;50.828;3.228;2023-04-16T02:26:54;13.20;;;8.93;;
49578;SDS011;35483;50.828;3.228;2023-04-16T02:29:20;15.98;;;8.52;;
49578;SDS011;35483;50.828;3.228;2023-04-16T02:31:46;11.60;;;7.90;;
49578;SDS011;35483;50.828;3.228;2023-04-16T02:34:13;11.48;;;8.60;;
49578;SDS011;35483;50.828;3.228;2023-04-16T02:36:38;10.27;;;8.05;;
49578;SDS011;35483;50.828;3.228;2023-04-16T02:39:05;10.68;;;7.88;;
49578;SDS011;35483;50.828;3.228;2023-04-16T02:41:31;10.98;;;8.50;;
49578;SDS011;35483;50.828;3.228;2023-04-16T02:43:57;8.75;;;7.63;;
49578;SDS011;35483;50.828;3.228;2023-04-16T02:46:22;14.02;;;7.60;;
49578;SDS011;35483;50.828;3.228;2023-04-16T02:48:48;11.02;;;7.70;;
49578;SDS011;35483;50.828;3.228;2023-04-16T02:51:14;14.55;;;8.23;;
49578;SDS011;35483;50.828;3.228;2023-04-16T02:53:39;12.38;;;8.93;;
49578;SDS011;35483;50.828;3.228;2023-04-16T02:56:09;10.95;;;7.93;;
49578;SDS011;35483;50.828;3.228;2023-04-16T02:58:35;15.68;;;8.52;;
49578;SDS011;35483;50.828;3.228;2023-04-16T03:01:01;10.23;;;7.40;;
49578;SDS011;35483;50.828;3.228;2023-04-16T03:03:27;10.73;;;7.03;;
49578;SDS011;35483;50.828;3.228;2023-04-16T03:05:52;12.75;;;7.72;;
49578;SDS011;35483;50.828;3.228;2023-04-16T03:08:18;10.50;;;7.10;;
49578;SDS011;35483;50.828;3.228;2023-04-16T03:10:43;9.82;;;7.22;;
49578;SDS011;35483;50.828;3.228;2023-04-16T03:13:09;11.02;;;6.47;;
49578;SDS011;35483;50.828;3.228;2023-04-16T03:15:35;11.80;;;7.43;;
49578;SDS011;35483;50.828;3.228;2023-04-16T03:18:01;9.90;;;7.03;;
49578;SDS011;35483;50.828;3.228;2023-04-16T03:20:28;9.07;;;6.88;;
49578;SDS011;35483;50.828;3.228;2023-04-16T03:22:53;10.10;;;6.57;;
49578;SDS011;35483;50.828;3.228;2023-04-16T03:25:19;11.40;;;6.75;;
49578;SDS011;35483;50.828;3.228;2023-04-16T03:27:45;11.40;;;6.93;;
49578;SDS011;35483;50.828;3.228;2023-04-16T03:30:11;7.22;;;6.07;;
49578;SDS011;35483;50.828;3.228;2023-04-16T03:32:37;7.95;;;6.20;;
49578;SDS011;35483;50.828;3.228;2023-04-16T03:35:04;9.88;;;6.00;;
49578;SDS011;35483;50.828;3.228;2023-04-16T03:37:31;8.13;;;5.60;;
49578;SDS011;35483;50.828;3.228;2023-04-16T03:39:57;6.35;;;5.65;;
49578;SDS011;35483;50.828;3.228;2023-04-16T03:42:22;8.13;;;5.38;;
49578;SDS011;35483;50.828;3.228;2023-04-16T03:44:48;8.18;;;6.18;;
49578;SDS011;35483;50.828;3.228;2023-04-16T03:47:14;8.85;;;6.07;;
49578;SDS011;35483;50.828;3.228;2023-04-16T03:49:39;8.68;;;5.50;;
49578;SDS011;35483;50.828;3.228;2023-04-16T03:52:05;8.73;;;5.63;;
49578;SDS011;35483;50.828;3.228;2023-04-16T03:54:31;7.85;;;5.45;;
49578;SDS011;35483;50.828;3.228;2023-04-16T03:56:57;7.50;;;5.50;;
49578;SDS011;35483;50.828;3.228;2023-04-16T03:59:22;7.47;;;5.78;;
49578;SDS011;35483;50.828;3.228;2023-04-16T04:01:48;10.35;;;6.20;;
49578;SDS011;35483;50.828;3.228;2023-04-16T04:04:14;9.65;;;5.72;;
49578;SDS011;35483;50.828;3.228;2023-04-16T04:06:41;9.45;;;5.68;;
49578;SDS011;35483;50.828;3.228;2023-04-16T04:09:08;9.88;;;5.93;;
49578;SDS011;35483;50.828;3.228;2023-04-16T04:11:34;9.32;;;5.35;;
49578;SDS011;35483;50.828;3.228;2023-04-16T04:13:59;8.90;;;5.22;;
49578;SDS011;35483;50.828;3.228;2023-04-16T04:16:25;7.10;;;5.50;;
49578;SDS011;35483;50.828;3.228;2023-04-16T04:18:50;8.93;;;6.22;;
49578;SDS011;35483;50.828;3.228;2023-04-16T04:21:16;7.68;;;5.80;;
49578;SDS011;35483;50.828;3.228;2023-04-16T04:23:42;9.82;;;5.95;;
49578;SDS011;35483;50.828;3.228;2023-04-16T04:26:07;7.90;;;5.95;;
49578;SDS011;35483;50.828;3.228;2023-04-16T04:28:34;8.75;;;6.20;;
49578;SDS011;35483;50.828;3.228;2023-04-16T04:31:00;9.13;;;6.13;;
49578;SDS011;35483;50.828;3.228;2023-04-16T04:33:26;8.45;;;6.20;;
49578;SDS011;35483;50.828;3.228;2023-04-16T04:35:53;6.88;;;5.65;;
49578;SDS011;35483;50.828;3.228;2023-04-16T04:38:20;8.55;;;6.00;;
49578;SDS011;35483;50.828;3.228;2023-04-16T04:40:49;8.43;;;6.40;;
49578;SDS011;35483;50.828;3.228;2023-04-16T04:43:18;11.20;;;6.18;;
49578;SDS011;35483;50.828;3.228;2023-04-16T04:45:44;10.95;;;6.10;;
49578;SDS011;35483;50.828;3.228;2023-04-16T04:48:10;9.00;;;6.03;;
49578;SDS011;35483;50.828;3.228;2023-04-16T04:50:36;10.15;;;6.65;;
49578;SDS011;35483;50.828;3.228;2023-04-16T04:53:02;9.63;;;6.53;;
49578;SDS011;35483;50.828;3.228;2023-04-16T04:55:34;8.35;;;6.18;;
49578;SDS011;35483;50.828;3.228;2023-04-16T04:58:03;7.00;;;5.97;;
49578;SDS011;35483;50.828;3.228;2023-04-16T05:00:30;8.45;;;6.70;;
49578;SDS011;35483;50.828;3.228;2023-04-16T05:02:57;7.93;;;6.15;;
49578;SDS011;35483;50.828;3.228;2023-04-16T05:05:26;8.30;;;6.90;;
49578;SDS011;35483;50.828;3.228;2023-04-16T05:07:52;9.75;;;6.45;;
49578;SDS011;35483;50.828;3.228;2023-04-16T05:10:17;7.15;;;6.00;;
49578;SDS011;35483;50.828;3.228;2023-04-16T05:12:44;9.25;;;6.85;;
49578;SDS011;35483;50.828;3.228;2023-04-16T05:15:11;9.95;;;6.00;;
49578;SDS011;35483;50.828;3.228;2023-04-16T05:17:37;8.30;;;6.63;;
49578;SDS011;35483;50.828;3.228;2023-04-16T05:20:02;10.57;;;7.25;;
49578;SDS011;35483;50.828;3.228;2023-04-16T05:22:28;10.20;;;6.85;;
49578;SDS011;35483;50.828;3.228;2023-04-16T05:24:54;10.15;;;7.25;;
49578;SDS011;35483;50.828;3.228;2023-04-16T05:27:20;10.60;;;7.43;;
49578;SDS011;35483;50.828;3.228;2023-04-16T05:29:46;11.15;;;8.77;;
49578;SDS011;35483;50.828;3.228;2023-04-16T05:32:11;12.57;;;8.57;;
49578;SDS011;35483;50.828;3.228;2023-04-16T05:34:37;11.45;;;7.97;;
49578;SDS011;35483;50.828;3.228;2023-04-16T05:37:03;11.32;;;7.63;;
49578;SDS011;35483;50.828;3.228;2023-04-16T05:39:28;11.32;;;6.80;;
49578;SDS011;35483;50.828;3.228;2023-04-16T05:41:54;9.05;;;7.00;;
49578;SDS011;35483;50.828;3.228;2023-04-16T05:44:20;7.45;;;6.75;;
49578;SDS011;35483;50.828;3.228;2023-04-16T05:46:45;8.20;;;6.43;;
49578;SDS011;35483;50.828;3.228;2023-04-16T05:49:11;8.43;;;6.63;;
49578;SDS011;35483;50.828;3.228;2023-04-16T05:51:37;7.82;;;7.03;;
49578;SDS011;35483;50.828;3.228;2023-04-16T05:54:02;8.20;;;6.80;;
49578;SDS011;35483;50.828;3.228;2023-04-16T05:56:28;9.73;;;7.55;;
49578;SDS011;35483;50.828;3.228;2023-04-16T05:58:53;9.43;;;6.82;;
49578;SDS011;35483;50.828;3.228;2023-04-16T06:01:20;9.85;;;7.20;;
49578;SDS011;35483;50.828;3.228;2023-04-16T06:03:46;12.35;;;7.47;;
49578;SDS011;35483;50.828;3.228;2023-04-16T06:06:12;10.35;;;7.05;;
49578;SDS011;35483;50.828;3.228;2023-04-16T06:08:37;11.77;;;6.93;;
49578;SDS011;35483;50.828;3.228;2023-04-16T06:11:03;10.07;;;6.60;;
49578;SDS011;35483;50.828;3.228;2023-04-16T06:13:29;8.02;;;5.88;;
49578;SDS011;35483;50.828;3.228;2023-04-16T06:15:55;8.10;;;6.38;;
49578;SDS011;35483;50.828;3.228;2023-04-16T06:18:21;7.95;;;7.05;;
49578;SDS011;35483;50.828;3.228;2023-04-16T06:20:46;9.02;;;5.93;;
49578;SDS011;35483;50.828;3.228;2023-04-16T06:23:12;9.80;;;6.57;;
49578;SDS011;35483;50.828;3.228;2023-04-16T06:25:37;7.57;;;5.32;;
49578;SDS011;35483;50.828;3.228;2023-04-16T06:28:03;6.72;;;5.13;;
49578;SDS011;35483;50.828;3.228;2023-04-16T06:30:29;6.82;;;5.45;;
49578;SDS011;35483;50.828;3.228;2023-04-16T06:32:55;7.35;;;5.63;;
49578;SDS011;35483;50.828;3.228;2023-04-16T06:35:21;6.15;;;5.13;;
49578;SDS011;35483;50.828;3.228;2023-04-16T06:37:46;5.57;;;4.65;;
49578;SDS011;35483;50.828;3.228;2023-04-16T06:40:12;6.00;;;4.70;;
49578;SDS011;35483;50.828;3.228;2023-04-16T06:42:38;6.82;;;5.40;;
49578;SDS011;35483;50.828;3.228;2023-04-16T06:45:04;6.30;;;5.10;;
49578;SDS011;35483;50.828;3.228;2023-04-16T06:47:30;6.10;;;5.22;;
49578;SDS011;35483;50.828;3.228;2023-04-16T06:49:55;6.07;;;4.72;;
49578;SDS011;35483;50.828;3.228;2023-04-16T06:52:21;5.68;;;4.70;;
49578;SDS011;35483;50.828;3.228;2023-04-16T06:54:47;7.97;;;5.22;;
49578;SDS011;35483;50.828;3.228;2023-04-16T06:57:13;6.60;;;3.88;;
49578;SDS011;35483;50.828;3.228;2023-04-16T06:59:38;5.50;;;3.78;;
49578;SDS011;35483;50.828;3.228;2023-04-16T07:02:04;4.05;;;3.30;;
49578;SDS011;35483;50.828;3.228;2023-04-16T07:04:31;6.20;;;2.50;;
49578;SDS011;35483;50.828;3.228;2023-04-16T07:06:57;4.10;;;3.17;;
49578;SDS011;35483;50.828;3.228;2023-04-16T07:09:22;3.15;;;2.60;;
49578;SDS011;35483;50.828;3.228;2023-04-16T07:11:49;3.65;;;2.65;;
49578;SDS011;35483;50.828;3.228;2023-04-16T07:14:15;5.72;;;2.40;;
49578;SDS011;35483;50.828;3.228;2023-04-16T07:16:40;3.10;;;2.10;;
49578;SDS011;35483;50.828;3.228;2023-04-16T07:19:06;3.38;;;2.20;;
49578;SDS011;35483;50.828;3.228;2023-04-16T07:21:32;3.92;;;2.40;;
49578;SDS011;35483;50.828;3.228;2023-04-16T07:23:57;3.17;;;2.10;;
49578;SDS011;35483;50.828;3.228;2023-04-16T07:26:23;6.30;;;3.13;;
49578;SDS011;35483;50.828;3.228;2023-04-16T07:28:49;5.53;;;2.20;;
49578;SDS011;35483;50.828;3.228;2023-04-16T07:31:14;3.95;;;2.35;;
49578;SDS011;35483;50.828;3.228;2023-04-16T07:33:40;3.25;;;2.45;;
49578;SDS011;35483;50.828;3.228;2023-04-16T07:36:06;2.92;;;2.13;;
49578;SDS011;35483;50.828;3.228;2023-04-16T07:38:32;3.85;;;2.17;;
49578;SDS011;35483;50.828;3.228;2023-04-16T07:40:58;3.47;;;2.17;;
49578;SDS011;35483;50.828;3.228;2023-04-16T07:43:24;3.13;;;1.90;;
49578;SDS011;35483;50.828;3.228;2023-04-16T07:45:53;6.85;;;2.53;;
49578;SDS011;35483;50.828;3.228;2023-04-16T07:48:20;5.63;;;2.38;;
49578;SDS011;35483;50.828;3.228;2023-04-16T07:50:46;2.92;;;2.15;;
49578;SDS011;35483;50.828;3.228;2023-04-16T07:53:11;5.25;;;1.98;;
49578;SDS011;35483;50.828;3.228;2023-04-16T07:55:37;2.42;;;1.98;;
49578;SDS011;35483;50.828;3.228;2023-04-16T07:58:03;2.05;;;1.77;;
49578;SDS011;35483;50.828;3.228;2023-04-16T08:00:31;3.25;;;1.60;;
49578;SDS011;35483;50.828;3.228;2023-04-16T08:02:57;2.47;;;1.58;;
49578;SDS011;35483;50.828;3.228;2023-04-16T08:05:22;1.77;;;1.45;;
49578;SDS011;35483;50.828;3.228;2023-04-16T08:07:48;5.93;;;1.75;;
49578;SDS011;35483;50.828;3.228;2023-04-16T08:10:14;5.07;;;1.77;;
49578;SDS011;35483;50.828;3.228;2023-04-16T08:12:40;2.35;;;1.60;;
49578;SDS011;35483;50.828;3.228;2023-04-16T08:15:06;6.03;;;1.98;;
49578;SDS011;35483;50.828;3.228;2023-04-16T08:17:32;4.88;;;1.92;;
49578;SDS011;35483;50.828;3.228;2023-04-16T08:19:59;3.05;;;1.65;;
49578;SDS011;35483;50.828;3.228;2023-04-16T08:22:25;4.75;;;1.48;;
49578;SDS011;35483;50.828;3.228;2023-04-16T08:24:51;2.50;;;1.30;;
49578;SDS011;35483;50.828;3.228;2023-04-16T08:27:17;3.33;;;1.38;;
49578;SDS011;35483;50.828;3.228;2023-04-16T08:29:42;2.45;;;1.77;;
49578;SDS011;35483;50.828;3.228;2023-04-16T08:32:08;1.70;;;1.42;;
49578;SDS011;35483;50.828;3.228;2023-04-16T08:34:34;2.42;;;1.30;;
49578;SDS011;35483;50.828;3.228;2023-04-16T08:37:01;1.98;;;1.17;;
49578;SDS011;35483;50.828;3.228;2023-04-16T08:39:27;2.10;;;1.55;;
49578;SDS011;35483;50.828;3.228;2023-04-16T08:41:53;2.28;;;1.40;;
49578;SDS011;35483;50.828;3.228;2023-04-16T08:44:29;1.48;;;1.38;;
49578;SDS011;35483;50.828;3.228;2023-04-16T08:46:57;2.00;;;1.50;;
49578;SDS011;35483;50.828;3.228;2023-04-16T08:49:24;1.42;;;1.30;;
49578;SDS011;35483;50.828;3.228;2023-04-16T08:51:52;2.10;;;1.50;;
49578;SDS011;35483;50.828;3.228;2023-04-16T08:57:25;3.80;;;1.38;;
49578;SDS011;35483;50.828;3.228;2023-04-16T09:00:11;4.32;;;1.33;;
49578;SDS011;35483;50.828;3.228;2023-04-16T09:02:38;2.97;;;1.10;;
49578;SDS011;35483;50.828;3.228;2023-04-16T09:05:04;2.33;;;1.10;;
49578;SDS011;35483;50.828;3.228;2023-04-16T09:07:32;3.25;;;2.10;;
49578;SDS011;35483;50.828;3.228;2023-04-16T09:09:59;2.97;;;1.77;;
49578;SDS011;35483;50.828;3.228;2023-04-16T09:12:25;2.13;;;1.45;;
49578;SDS011;35483;50.828;3.228;2023-04-16T09:14:51;3.08;;;1.60;;
49578;SDS011;35483;50.828;3.228;2023-04-16T09:17:17;4.38;;;1.65;;
49578;SDS011;35483;50.828;3.228;2023-04-16T09:19:44;3.97;;;1.80;;
49578;SDS011;35483;50.828;3.228;2023-04-16T09:22:10;2.60;;;2.08;;
49578;SDS011;35483;50.828;3.228;2023-04-16T09:24:36;3.63;;;1.75;;
49578;SDS011;35483;50.828;3.228;2023-04-16T09:27:02;2.58;;;1.98;;
49578;SDS011;35483;50.828;3.228;2023-04-16T09:29:35;5.40;;;3.15;;
49578;SDS011;35483;50.828;3.228;2023-04-16T09:32:06;2.40;;;2.00;;
49578;SDS011;35483;50.828;3.228;2023-04-16T09:34:33;1.95;;;1.60;;
49578;SDS011;35483;50.828;3.228;2023-04-16T09:37:13;2.58;;;2.35;;
49578;SDS011;35483;50.828;3.228;2023-04-16T09:39:42;2.38;;;1.42;;
49578;SDS011;35483;50.828;3.228;2023-04-16T09:42:09;4.65;;;2.20;;
49578;SDS011;35483;50.828;3.228;2023-04-16T09:44:36;2.35;;;1.80;;
49578;SDS011;35483;50.828;3.228;2023-04-16T09:47:06;3.72;;;1.95;;
49578;SDS011;35483;50.828;3.228;2023-04-16T09:49:33;4.05;;;1.52;;
49578;SDS011;35483;50.828;3.228;2023-04-16T09:52:03;3.28;;;1.60;;
49578;SDS011;35483;50.828;3.228;2023-04-16T09:54:37;3.85;;;1.48;;
49578;SDS011;35483;50.828;3.228;2023-04-16T09:57:06;1.25;;;1.17;;
49578;SDS011;35483;50.828;3.228;2023-04-16T09:59:34;3.13;;;1.40;;
49578;SDS011;35483;50.828;3.228;2023-04-16T10:02:00;1.33;;;0.98;;
49578;SDS011;35483;50.828;3.228;2023-04-16T10:04:26;2.25;;;1.35;;
49578;SDS011;35483;50.828;3.228;2023-04-16T10:07:01;3.97;;;1.60;;
49578;SDS011;35483;50.828;3.228;2023-04-16T10:09:35;2.63;;;1.52;;
49578;SDS011;35483;50.828;3.228;2023-04-16T10:12:02;4.40;;;1.67;;
49578;SDS011;35483;50.828;3.228;2023-04-16T10:14:28;4.55;;;1.58;;
49578;SDS011;35483;50.828;3.228;2023-04-16T10:16:56;4.05;;;1.38;;
49578;SDS011;35483;50.828;3.228;2023-04-16T10:19:23;1.38;;;1.20;;
49578;SDS011;35483;50.828;3.228;2023-04-16T10:21:51;2.08;;;1.40;;
49578;SDS011;35483;50.828;3.228;2023-04-16T10:24:17;1.38;;;1.25;;
49578;SDS011;35483;50.828;3.228;2023-04-16T10:26:44;1.50;;;1.25;;
49578;SDS011;35483;50.828;3.228;2023-04-16T10:29:11;3.40;;;1.98;;
49578;SDS011;35483;50.828;3.228;2023-04-16T10:31:37;1.70;;;1.52;;
49578;SDS011;35483;50.828;3.228;2023-04-16T10:34:04;2.58;;;1.55;;
49578;SDS011;35483;50.828;3.228;2023-04-16T10:36:35;2.28;;;1.40;;
49578;SDS011;35483;50.828;3.228;2023-04-16T10:39:01;1.25;;;1.08;;
49578;SDS011;35483;50.828;3.228;2023-04-16T10:41:28;1.83;;;1.30;;
49578;SDS011;35483;50.828;3.228;2023-04-16T10:44:03;1.75;;;1.52;;
49578;SDS011;35483;50.828;3.228;2023-04-16T10:46:44;2.38;;;1.30;;
49578;SDS011;35483;50.828;3.228;2023-04-16T10:49:17;1.48;;;1.38;;
49578;SDS011;35483;50.828;3.228;2023-04-16T10:51:58;1.23;;;1.13;;
49578;SDS011;35483;50.828;3.228;2023-04-16T10:54:31;1.40;;;1.08;;
49578;SDS011;35483;50.828;3.228;2023-04-16T10:57:05;1.38;;;1.20;;
49578;SDS011;35483;50.828;3.228;2023-04-16T10:59:34;2.83;;;1.60;;
49578;SDS011;35483;50.828;3.228;2023-04-16T11:02:05;3.20;;;1.70;;
49578;SDS011;35483;50.828;3.228;2023-04-16T11:09:42;4.35;;;1.25;;
49578;SDS011;35483;50.828;3.228;2023-04-16T11:15:06;2.38;;;1.60;;
49578;SDS011;35483;50.828;3.228;2023-04-16T11:17:39;3.53;;;1.30;;
49578;SDS011;35483;50.828;3.228;2023-04-16T11:22:42;1.65;;;1.45;;
49578;SDS011;35483;50.828;3.228;2023-04-16T11:25:11;3.03;;;2.15;;
49578;SDS011;35483;50.828;3.228;2023-04-16T11:27:37;3.42;;;1.60;;
49578;SDS011;35483;50.828;3.228;2023-04-16T11:30:04;2.00;;;1.70;;
49578;SDS011;35483;50.828;3.228;2023-04-16T11:32:34;2.22;;;1.63;;
49578;SDS011;35483;50.828;3.228;2023-04-16T11:35:01;1.50;;;1.33;;
49578;SDS011;35483;50.828;3.228;2023-04-16T11:40:02;1.75;;;1.38;;
49578;SDS011;35483;50.828;3.228;2023-04-16T11:42:35;2.42;;;2.00;;
49578;SDS011;35483;50.828;3.228;2023-04-16T11:45:02;2.38;;;1.80;;
49578;SDS011;35483;50.828;3.228;2023-04-16T11:47:29;1.92;;;1.50;;
49578;SDS011;35483;50.828;3.228;2023-04-16T11:49:56;2.58;;;1.85;;
49578;SDS011;35483;50.828;3.228;2023-04-16T11:52:29;3.58;;;1.80;;
49578;SDS011;35483;50.828;3.228;2023-04-16T11:54:57;2.25;;;1.60;;
49578;SDS011;35483;50.828;3.228;2023-04-16T11:57:30;1.70;;;1.60;;
49578;SDS011;35483;50.828;3.228;2023-04-16T11:59:56;3.80;;;1.95;;
49578;SDS011;35483;50.828;3.228;2023-04-16T12:02:36;2.67;;;1.92;;
49578;SDS011;35483;50.828;3.228;2023-04-16T12:05:24;2.80;;;1.90;;
49578;SDS011;35483;50.828;3.228;2023-04-16T12:08:04;2.45;;;1.40;;
49578;SDS011;35483;50.828;3.228;2023-04-16T12:10:32;2.25;;;1.83;;
49578;SDS011;35483;50.828;3.228;2023-04-16T12:13:09;3.22;;;2.17;;
49578;SDS011;35483;50.828;3.228;2023-04-16T12:15:46;2.40;;;2.20;;
49578;SDS011;35483;50.828;3.228;2023-04-16T12:18:13;5.63;;;3.08;;
49578;SDS011;35483;50.828;3.228;2023-04-16T12:20:40;3.15;;;2.03;;
49578;SDS011;35483;50.828;3.228;2023-04-16T12:23:07;3.03;;;1.67;;
49578;SDS011;35483;50.828;3.228;2023-04-16T12:25:32;3.40;;;2.00;;
49578;SDS011;35483;50.828;3.228;2023-04-16T12:27:58;1.88;;;1.65;;
49578;SDS011;35483;50.828;3.228;2023-04-16T12:30:25;3.05;;;1.70;;
49578;SDS011;35483;50.828;3.228;2023-04-16T12:32:52;2.95;;;1.90;;
49578;SDS011;35483;50.828;3.228;2023-04-16T12:35:38;3.20;;;1.98;;
49578;SDS011;35483;50.828;3.228;2023-04-16T12:38:05;3.17;;;2.28;;
49578;SDS011;35483;50.828;3.228;2023-04-16T12:40:32;3.28;;;2.38;;
49578;SDS011;35483;50.828;3.228;2023-04-16T12:42:58;2.15;;;1.60;;
49578;SDS011;35483;50.828;3.228;2023-04-16T12:45:24;2.78;;;1.90;;
49578;SDS011;35483;50.828;3.228;2023-04-16T12:47:50;1.90;;;1.67;;
49578;SDS011;35483;50.828;3.228;2023-04-16T12:50:15;2.78;;;1.80;;
49578;SDS011;35483;50.828;3.228;2023-04-16T12:52:41;3.53;;;2.00;;
49578;SDS011;35483;50.828;3.228;2023-04-16T12:55:07;3.53;;;2.15;;
49578;SDS011;35483;50.828;3.228;2023-04-16T12:57:33;3.15;;;2.53;;
49578;SDS011;35483;50.828;3.228;2023-04-16T12:59:59;2.03;;;1.83;;
49578;SDS011;35483;50.828;3.228;2023-04-16T13:02:25;3.85;;;1.90;;
49578;SDS011;35483;50.828;3.228;2023-04-16T13:04:51;2.85;;;2.00;;
49578;SDS011;35483;50.828;3.228;2023-04-16T13:07:17;2.33;;;2.00;;
49578;SDS011;35483;50.828;3.228;2023-04-16T13:09:43;4.82;;;2.40;;
49578;SDS011;35483;50.828;3.228;2023-04-16T13:12:10;3.53;;;2.00;;
49578;SDS011;35483;50.828;3.228;2023-04-16T13:14:36;2.60;;;1.88;;
49578;SDS011;35483;50.828;3.228;2023-04-16T13:17:01;2.50;;;1.90;;
49578;SDS011;35483;50.828;3.228;2023-04-16T13:19:28;3.33;;;1.77;;
49578;SDS011;35483;50.828;3.228;2023-04-16T13:21:56;2.00;;;1.60;;
49578;SDS011;35483;50.828;3.228;2023-04-16T13:24:23;3.55;;;1.70;;
49578;SDS011;35483;50.828;3.228;2023-04-16T13:26:49;1.77;;;1.25;;
49578;SDS011;35483;50.828;3.228;2023-04-16T13:29:17;1.50;;;1.38;;
49578;SDS011;35483;50.828;3.228;2023-04-16T13:31:43;2.10;;;1.30;;
49578;SDS011;35483;50.828;3.228;2023-04-16T13:34:09;1.65;;;1.50;;
49578;SDS011;35483;50.828;3.228;2023-04-16T13:36:35;2.30;;;1.40;;
49578;SDS011;35483;50.828;3.228;2023-04-16T13:39:00;2.60;;;1.50;;
49578;SDS011;35483;50.828;3.228;2023-04-16T13:41:29;2.08;;;1.38;;
49578;SDS011;35483;50.828;3.228;2023-04-16T13:43:55;2.10;;;1.58;;
49578;SDS011;35483;50.828;3.228;2023-04-16T13:46:21;3.15;;;1.80;;
49578;SDS011;35483;50.828;3.228;2023-04-16T13:48:47;2.38;;;1.90;;
49578;SDS011;35483;50.828;3.228;2023-04-16T13:51:13;2.33;;;1.80;;
49578;SDS011;35483;50.828;3.228;2023-04-16T13:53:39;3.92;;;1.80;;
49578;SDS011;35483;50.828;3.228;2023-04-16T13:56:05;1.95;;;1.50;;
49578;SDS011;35483;50.828;3.228;2023-04-16T13:58:32;2.67;;;1.70;;
49578;SDS011;35483;50.828;3.228;2023-04-16T14:00:58;3.10;;;1.67;;
49578;SDS011;35483;50.828;3.228;2023-04-16T14:03:24;3.83;;;1.85;;
49578;SDS011;35483;50.828;3.228;2023-04-16T14:05:51;2.13;;;1.40;;
49578;SDS011;35483;50.828;3.228;2023-04-16T14:08:17;2.60;;;2.20;;
49578;SDS011;35483;50.828;3.228;2023-04-16T14:10:45;2.15;;;1.65;;
49578;SDS011;35483;50.828;3.228;2023-04-16T14:13:11;2.15;;;1.63;;
49578;SDS011;35483;50.828;3.228;2023-04-16T14:15:37;2.42;;;1.25;;
49578;SDS011;35483;50.828;3.228;2023-04-16T14:18:03;1.95;;;1.38;;
49578;SDS011;35483;50.828;3.228;2023-04-16T14:20:29;1.55;;;1.42;;
49578;SDS011;35483;50.828;3.228;2023-04-16T14:22:55;2.92;;;1.42;;
49578;SDS011;35483;50.828;3.228;2023-04-16T14:25:21;2.47;;;1.20;;
49578;SDS011;35483;50.828;3.228;2023-04-16T14:27:47;1.63;;;1.50;;
49578;SDS011;35483;50.828;3.228;2023-04-16T14:30:13;1.60;;;1.38;;
49578;SDS011;35483;50.828;3.228;2023-04-16T14:32:39;1.42;;;1.10;;
49578;SDS011;35483;50.828;3.228;2023-04-16T14:35:05;3.13;;;1.30;;
49578;SDS011;35483;50.828;3.228;2023-04-16T14:37:32;0.90;;;0.90;;
49578;SDS011;35483;50.828;3.228;2023-04-16T14:40:00;1.80;;;1.30;;
49578;SDS011;35483;50.828;3.228;2023-04-16T14:42:26;1.35;;;1.25;;
49578;SDS011;35483;50.828;3.228;2023-04-16T14:44:52;3.13;;;1.38;;
49578;SDS011;35483;50.828;3.228;2023-04-16T14:47:18;1.48;;;1.30;;
49578;SDS011;35483;50.828;3.228;2023-04-16T14:49:43;1.13;;;1.00;;
49578;SDS011;35483;50.828;3.228;2023-04-16T14:52:09;1.40;;;1.30;;
49578;SDS011;35483;50.828;3.228;2023-04-16T14:54:35;2.08;;;1.38;;
49578;SDS011;35483;50.828;3.228;2023-04-16T14:57:01;2.25;;;1.15;;
49578;SDS011;35483;50.828;3.228;2023-04-16T14:59:27;3.88;;;1.40;;